Portada
METAR-TAF:

METAR-TAF

Aeroports :

Tuxtla Gutiérrez, Mèxic

latitud: 16-45N, longitud: 093-07W, altitud: 528 m

Observació

L'informe es va fer fa 1 hora i 21 minuts, a les 17:42 UTC
Vent 4 kt del Sud-Est
Temperatura 31°C
Humitat 27%
Pressió 1014 hPa
Visibilitat: 16.1 km
Cel clar

METAR: MMTG 231742Z 14004KT 10SM SKC 31/10 A2995 RMK SLP102 57021 983

Hora: 13:03 (19:03 UTC)

Pronòstic

L'informe es va fer fa 2 hores i 51 minuts, a les 16:12 UTC
Pronòstic vàlid del 23 a les 18 UTC al 24 a les 18 UTC
Vent 5 kt del Nord-Est
Visibilitat: 10 km
Cel clar
A partir de les 23 a les 2100 UTC
Vent 10 kt del Nord/Nord-Oest
Visibilitat: 10 km
Cel clar
A partir de les 24 a les 0300 UTC
Vent 5 kt del Nord/Nord-Oest
Visibilitat: 6.4 km
Núvols disperses a una alçada de 1500 ft
calitja
A partir de les 24 a les 1500 UTC
Vent 5 kt del Nord/Nord-Oest
Visibilitat: 9.7 km
Cel clar
calitja,

TAF: MMTG 231612Z 2318/2418 04005KT P6SM SKC FM232100 34010KT P6SM SKC FM240300 34005KT 4SM HZ SCT015 FM241500 34005KT 6SM HZ SKC

Observacions i pronòstics meteorològics de més de 4000 aeroports (METAR i TAF).

Les estacions disponibles són els punts grocs i vermells al mapa.

Posi el ratolí al punt desitjat per veure el nom de l'estació.

Feu clic per veure les observacions i els pronòstics meteorològics.

Per canviar el mapa: feu clic els botons verds amb una creu de color negre per apropar; al botó verd amb un guió per allunyar la imatge; o en les fletxes verdes per a mapes adjacents.


METAR-TAF: